createdAt,value
2017-09-13T00:00:27.877Z,100022
2017-09-13T00:02:58.823Z,100013
2017-09-13T00:05:27.969Z,100015
2017-09-13T00:07:57.183Z,100016
2017-09-13T00:10:27.267Z,100015
2017-09-13T00:12:57.284Z,100008
2017-09-13T00:15:26.459Z,100008
2017-09-13T00:17:56.032Z,100006
2017-09-13T00:20:25.999Z,100009
2017-09-13T00:22:55.167Z,100000
2017-09-13T00:25:24.606Z,99994
2017-09-13T00:27:54.496Z,99991
2017-09-13T00:30:24.462Z,99983
2017-09-13T00:32:53.829Z,99981
2017-09-13T00:35:23.350Z,99980
2017-09-13T00:37:52.445Z,99975
2017-09-13T00:40:21.956Z,99963
2017-09-13T00:42:51.069Z,99962
2017-09-13T00:45:20.243Z,99962
2017-09-13T00:47:49.514Z,99954
2017-09-13T00:50:19.503Z,99956
2017-09-13T00:52:49.499Z,99952
2017-09-13T00:55:19.006Z,99955
2017-09-13T00:57:48.894Z,99945
2017-09-13T01:00:18.019Z,99940
2017-09-13T01:02:47.470Z,99940
2017-09-13T01:05:16.594Z,99941
2017-09-13T01:07:45.803Z,99943
2017-09-13T01:10:16.159Z,99937
2017-09-13T01:12:46.249Z,99941
2017-09-13T01:15:15.373Z,99938
2017-09-13T01:17:44.848Z,99941
2017-09-13T01:20:14.053Z,99937
2017-09-13T01:22:43.202Z,99931
2017-09-13T01:25:12.658Z,99925
2017-09-13T01:27:42.182Z,99931
2017-09-13T01:30:11.445Z,99919
2017-09-13T01:32:41.599Z,99918
2017-09-13T01:35:10.850Z,99905
2017-09-13T01:37:39.978Z,99905
2017-09-13T01:40:09.500Z,99902
2017-09-13T01:42:38.594Z,99896
2017-09-13T01:45:08.526Z,99886
2017-09-13T01:47:37.709Z,99884
2017-09-13T01:50:06.789Z,99877
2017-09-13T01:52:35.955Z,99869
2017-09-13T01:55:05.300Z,99856
2017-09-13T01:57:34.497Z,99857
2017-09-13T02:00:04.576Z,99853
2017-09-13T02:02:33.963Z,99847
2017-09-13T02:05:03.126Z,99849
2017-09-13T02:07:32.650Z,99841
2017-09-13T02:10:02.759Z,99831
2017-09-13T02:12:32.735Z,99820
2017-09-13T02:15:01.905Z,99813
2017-09-13T02:17:31.436Z,99810
2017-09-13T02:20:02.218Z,99805
2017-09-13T02:22:31.699Z,99795
2017-09-13T02:25:01.019Z,99782
2017-09-13T02:27:30.149Z,99779
2017-09-13T02:29:59.323Z,99767
2017-09-13T02:32:28.880Z,99756
2017-09-13T02:34:58.741Z,99758
2017-09-13T02:37:27.827Z,99752
2017-09-13T02:39:57.063Z,99748
2017-09-13T02:42:26.161Z,99740
2017-09-13T02:44:55.267Z,99733
2017-09-13T02:47:25.399Z,99728
2017-09-13T02:49:54.532Z,99713
2017-09-13T02:52:23.621Z,99714
2017-09-13T02:54:53.080Z,99712
2017-09-13T02:57:22.972Z,99706
2017-09-13T02:59:53.671Z,99695
2017-09-13T03:02:23.678Z,99689
2017-09-13T03:04:52.849Z,99684
2017-09-13T03:07:22.652Z,99685
2017-09-13T03:09:52.030Z,99683
2017-09-13T03:12:21.554Z,99686
2017-09-13T03:14:50.633Z,99672
2017-09-13T03:17:19.806Z,99661
2017-09-13T03:19:49.662Z,99654
2017-09-13T03:22:19.095Z,99644
2017-09-13T03:24:49.374Z,99630
2017-09-13T03:27:18.487Z,99636
2017-09-13T03:29:47.643Z,99640
2017-09-13T03:32:16.848Z,99636
2017-09-13T03:34:45.978Z,99630
2017-09-13T03:37:15.144Z,99629
2017-09-13T03:39:44.458Z,99621
2017-09-13T03:42:13.626Z,99618
2017-09-13T03:44:43.127Z,99614
2017-09-13T03:47:12.797Z,99606
2017-09-13T03:49:42.650Z,99600
2017-09-13T03:52:12.572Z,99585
2017-09-13T03:54:41.867Z,99587
2017-09-13T03:57:10.995Z,99589
2017-09-13T03:59:40.279Z,99590
2017-09-13T04:02:10.551Z,99573
2017-09-13T04:04:39.714Z,99570
2017-09-13T04:07:09.121Z,99560
2017-09-13T04:09:38.424Z,99560
2017-09-13T04:12:07.591Z,99547
2017-09-13T04:14:37.307Z,99552
2017-09-13T04:17:07.444Z,99539
2017-09-13T04:19:36.567Z,99530
2017-09-13T04:22:05.821Z,99519
2017-09-13T04:24:34.993Z,99512
2017-09-13T04:27:04.938Z,99499
2017-09-13T04:29:34.075Z,99499
2017-09-13T04:32:04.369Z,99492
2017-09-13T04:34:34.261Z,99471
2017-09-13T04:37:03.458Z,99470
2017-09-13T04:39:33.650Z,99463
2017-09-13T04:42:02.770Z,99448
2017-09-13T04:44:31.862Z,99451
2017-09-13T04:47:01.331Z,99447
2017-09-13T04:49:30.452Z,99443
2017-09-13T04:51:59.783Z,99444
2017-09-13T04:54:29.880Z,99445
2017-09-13T04:56:59.742Z,99442
2017-09-13T04:59:28.918Z,99426
2017-09-13T05:01:58.239Z,99413
2017-09-13T05:04:28.321Z,99406
2017-09-13T05:06:58.283Z,99413
2017-09-13T05:09:27.634Z,99397
2017-09-13T05:12:00.171Z,99380
2017-09-13T05:14:29.402Z,99374
2017-09-13T05:16:58.497Z,99372
2017-09-13T05:19:27.647Z,99365
2017-09-13T05:21:57.929Z,99357
2017-09-13T05:24:27.390Z,99354
2017-09-13T05:26:58.595Z,99344
2017-09-13T05:29:28.690Z,99339
2017-09-13T05:31:57.814Z,99324
2017-09-13T05:34:29.442Z,99322
2017-09-13T05:36:58.618Z,99296
2017-09-13T05:39:28.482Z,99288
2017-09-13T05:41:57.730Z,99286
2017-09-13T05:44:26.951Z,99277
2017-09-13T05:46:56.915Z,99262
2017-09-13T05:49:26.526Z,99259
2017-09-13T05:51:55.675Z,99248
2017-09-13T05:54:24.802Z,99236
2017-09-13T05:56:54.992Z,99227
2017-09-13T05:59:24.188Z,99210
2017-09-13T06:01:54.896Z,99202
2017-09-13T06:04:24.268Z,99181
2017-09-13T06:06:53.442Z,99164
2017-09-13T06:09:23.781Z,99163
2017-09-13T06:11:53.867Z,99155
2017-09-13T06:14:22.963Z,99148
2017-09-13T06:16:52.845Z,99149
2017-09-13T06:19:21.994Z,99138
2017-09-13T06:21:51.095Z,99128
2017-09-13T06:24:20.186Z,99116
2017-09-13T06:26:49.361Z,99100
2017-09-13T06:29:18.536Z,99092
2017-09-13T06:31:48.444Z,99087
2017-09-13T06:34:17.684Z,99079
2017-09-13T06:36:46.999Z,99074
2017-09-13T06:39:16.142Z,99062
2017-09-13T06:41:45.413Z,99058
2017-09-13T06:44:15.439Z,99047
2017-09-13T06:46:44.569Z,99034
2017-09-13T06:49:13.970Z,99017
2017-09-13T06:51:43.319Z,99003
2017-09-13T06:54:12.493Z,98998
2017-09-13T06:56:41.991Z,98988
2017-09-13T06:59:11.243Z,98974
2017-09-13T07:01:40.389Z,98968
2017-09-13T07:04:09.790Z,98957
2017-09-13T07:06:38.919Z,98943
2017-09-13T07:09:08.051Z,98936
2017-09-13T07:11:37.303Z,98929
2017-09-13T07:14:06.383Z,98922
2017-09-13T07:16:36.275Z,98904
2017-09-13T07:19:05.566Z,98896
2017-09-13T07:21:34.668Z,98887
2017-09-13T07:24:04.625Z,98870
2017-09-13T07:26:33.918Z,98871
2017-09-13T07:29:03.009Z,98846
2017-09-13T07:31:32.287Z,98840
2017-09-13T07:34:01.580Z,98828
2017-09-13T07:36:30.715Z,98820
2017-09-13T07:38:59.803Z,98807
2017-09-13T07:41:29.259Z,98803
2017-09-13T07:43:58.370Z,98796
2017-09-13T07:46:27.599Z,98791
2017-09-13T07:48:57.030Z,98781
2017-09-13T07:51:26.148Z,98775
2017-09-13T07:53:55.281Z,98771
2017-09-13T07:56:24.650Z,98750
2017-09-13T07:58:53.797Z,98740
2017-09-13T08:01:22.944Z,98739
2017-09-13T08:03:52.400Z,98743
2017-09-13T08:06:21.514Z,98743
2017-09-13T08:08:51.018Z,98732
2017-09-13T08:11:20.407Z,98730
2017-09-13T08:13:49.671Z,98737
2017-09-13T08:16:20.612Z,98727
2017-09-13T08:18:50.888Z,98717
2017-09-13T08:21:20.751Z,98710
2017-09-13T08:23:49.879Z,98710
2017-09-13T08:26:19.806Z,98699
2017-09-13T08:28:48.896Z,98691
2017-09-13T08:31:18.039Z,98684
2017-09-13T08:33:47.626Z,98683
2017-09-13T08:36:17.587Z,98668
2017-09-13T08:38:47.676Z,98667
2017-09-13T08:41:17.084Z,98656
2017-09-13T08:43:46.163Z,98655
2017-09-13T08:46:15.430Z,98651
2017-09-13T08:48:46.117Z,98641
2017-09-13T08:51:15.892Z,98634
2017-09-13T08:53:45.866Z,98632
2017-09-13T08:56:15.403Z,98618
2017-09-13T08:58:44.611Z,98621
2017-09-13T09:01:13.873Z,98613
2017-09-13T09:03:43.350Z,98605
2017-09-13T09:06:12.513Z,98595
2017-09-13T09:08:41.800Z,98615
2017-09-13T09:11:11.872Z,98607
2017-09-13T09:13:41.037Z,98597
2017-09-13T09:16:11.167Z,98594
2017-09-13T09:18:41.072Z,98583
2017-09-13T09:21:10.258Z,98577
2017-09-13T09:23:40.577Z,98569
2017-09-13T09:26:10.487Z,98567
2017-09-13T09:28:41.844Z,98564
2017-09-13T09:31:11.231Z,98553
2017-09-13T09:33:40.546Z,98550
2017-09-13T09:36:11.271Z,98540
2017-09-13T09:38:41.300Z,98536
2017-09-13T09:41:11.210Z,98524
2017-09-13T09:43:41.251Z,98525
2017-09-13T09:46:10.730Z,98517
2017-09-13T09:48:39.955Z,98508
2017-09-13T09:51:09.088Z,98501
2017-09-13T09:53:38.491Z,98503
2017-09-13T09:56:07.929Z,98483
2017-09-13T09:58:37.873Z,98498
2017-09-13T10:01:07.174Z,98488
2017-09-13T10:03:36.651Z,98494
2017-09-13T10:06:05.770Z,98471
2017-09-13T10:08:35.041Z,98474
2017-09-13T10:11:06.091Z,98466
2017-09-13T10:13:35.209Z,98458
2017-09-13T10:16:04.610Z,98446
2017-09-13T10:18:33.706Z,98451
2017-09-13T10:21:02.794Z,98438
2017-09-13T10:23:32.099Z,98443
2017-09-13T10:26:01.194Z,98432
2017-09-13T10:28:31.062Z,98424
2017-09-13T10:31:00.186Z,98427
2017-09-13T10:33:30.095Z,98430
2017-09-13T10:35:59.217Z,98442
2017-09-13T10:38:28.522Z,98448
2017-09-13T10:40:58.145Z,98439
2017-09-13T10:43:27.360Z,98430
2017-09-13T10:45:56.899Z,98429
2017-09-13T10:48:26.003Z,98422
2017-09-13T10:50:55.086Z,98420
2017-09-13T10:53:24.435Z,98413
2017-09-13T10:55:53.608Z,98407
2017-09-13T10:58:22.761Z,98418
2017-09-13T11:00:53.098Z,98423
2017-09-13T11:03:22.197Z,98415
2017-09-13T11:05:51.351Z,98419
2017-09-13T11:08:20.723Z,98407
2017-09-13T11:10:49.856Z,98411
2017-09-13T11:13:19.803Z,98403
2017-09-13T11:15:49.248Z,98408
2017-09-13T11:18:19.153Z,98397
2017-09-13T11:20:49.655Z,98414
2017-09-13T11:23:19.161Z,98415
2017-09-13T11:25:48.324Z,98403
2017-09-13T11:28:17.488Z,98380
2017-09-13T11:30:46.923Z,98387
2017-09-13T11:33:16.131Z,98388
2017-09-13T11:35:45.530Z,98382
2017-09-13T11:38:14.939Z,98411
2017-09-13T11:40:44.124Z,98400
2017-09-13T11:43:13.364Z,98413
2017-09-13T11:45:42.640Z,98408
2017-09-13T11:48:11.834Z,98400
2017-09-13T11:50:41.034Z,98373
2017-09-13T11:53:10.636Z,98376
2017-09-13T11:55:40.549Z,98394
2017-09-13T11:58:09.726Z,98408
2017-09-13T12:00:39.255Z,98399
2017-09-13T12:03:08.440Z,98411
2017-09-13T12:05:37.523Z,98406
2017-09-13T12:08:06.889Z,98376
2017-09-13T12:10:36.018Z,98406
2017-09-13T12:13:05.118Z,98414
2017-09-13T12:15:34.327Z,98412
2017-09-13T12:18:04.260Z,98408
2017-09-13T12:20:33.387Z,98400
2017-09-13T12:23:02.662Z,98413
2017-09-13T12:25:32.884Z,98403
2017-09-13T12:28:02.036Z,98407
2017-09-13T12:30:31.310Z,98388
2017-09-13T12:33:00.413Z,98395
2017-09-13T12:35:29.509Z,98388
2017-09-13T12:37:58.892Z,98406
2017-09-13T12:40:28.004Z,98416
2017-09-13T12:42:58.467Z,98399
2017-09-13T12:45:27.935Z,98374
2017-09-13T12:47:57.016Z,98396
2017-09-13T12:50:26.586Z,98404
2017-09-13T12:52:56.029Z,98383
2017-09-13T12:55:25.137Z,98404
2017-09-13T12:57:54.376Z,98391
2017-09-13T13:00:23.678Z,98407
2017-09-13T13:02:54.275Z,98383
2017-09-13T13:05:23.531Z,98392
2017-09-13T13:07:54.736Z,98391
2017-09-13T13:10:28.971Z,98390
2017-09-13T13:13:05.177Z,98386
2017-09-13T13:15:34.330Z,98393
2017-09-13T13:18:03.486Z,98385
2017-09-13T13:20:32.580Z,98390
2017-09-13T13:23:01.679Z,98384
2017-09-13T13:25:31.444Z,98401
2017-09-13T13:28:01.605Z,98388
2017-09-13T13:30:33.079Z,98388
2017-09-13T13:33:02.382Z,98389
2017-09-13T13:35:31.626Z,98392
2017-09-13T13:38:01.339Z,98376
2017-09-13T13:40:30.812Z,98380
2017-09-13T13:42:59.914Z,98380
2017-09-13T13:45:29.022Z,98405
2017-09-13T13:47:58.648Z,98386
2017-09-13T13:50:28.537Z,98386
2017-09-13T13:52:57.664Z,98394
2017-09-13T13:55:27.570Z,98403
2017-09-13T13:57:57.595Z,98365
2017-09-13T14:00:27.753Z,98389
2017-09-13T14:02:58.499Z,98393
2017-09-13T14:05:28.431Z,98412
2017-09-13T14:07:58.977Z,98385
2017-09-13T14:10:28.882Z,98399
2017-09-13T14:13:10.681Z,98412
2017-09-13T14:15:41.235Z,98421
2017-09-13T14:18:10.639Z,98402
2017-09-13T14:20:40.709Z,98411
2017-09-13T14:23:10.619Z,98408
2017-09-13T14:28:21.688Z,98416
2017-09-13T14:30:53.371Z,98417
2017-09-13T14:33:23.797Z,98425
2017-09-13T14:35:53.566Z,98406
2017-09-13T14:38:23.850Z,98388
2017-09-13T14:40:53.438Z,98405
2017-09-13T14:43:23.588Z,98406
2017-09-13T14:45:52.818Z,98384
2017-09-13T14:48:22.705Z,98389
2017-09-13T14:50:52.825Z,98403
2017-09-13T14:53:22.222Z,98383
2017-09-13T14:55:52.806Z,98365
2017-09-13T14:58:22.105Z,98378
2017-09-13T15:00:51.242Z,98421
2017-09-13T15:03:20.845Z,98411
2017-09-13T15:05:50.852Z,98411
2017-09-13T15:08:23.149Z,98393
2017-09-13T15:10:53.018Z,98407
2017-09-13T15:13:22.438Z,98415
2017-09-13T15:15:52.010Z,98414
2017-09-13T15:18:21.758Z,98407
2017-09-13T15:20:50.974Z,98417
2017-09-13T15:23:20.695Z,98424
2017-09-13T15:25:51.748Z,98440
2017-09-13T15:28:22.160Z,98464
2017-09-13T15:30:51.602Z,98465
2017-09-13T15:33:21.413Z,98475
2017-09-13T15:35:53.190Z,98487
2017-09-13T15:38:22.898Z,98495
2017-09-13T15:40:53.884Z,98481
2017-09-13T15:43:23.554Z,98500
2017-09-13T15:45:52.740Z,98501
2017-09-13T15:48:21.985Z,98515
2017-09-13T15:50:51.163Z,98506
2017-09-13T15:53:20.310Z,98493
2017-09-13T15:55:52.724Z,98513
2017-09-13T15:58:21.983Z,98509
2017-09-13T16:00:51.840Z,98493
2017-09-13T16:03:21.359Z,98533
2017-09-13T16:05:52.376Z,98512
2017-09-13T16:08:22.640Z,98509
2017-09-13T16:10:51.737Z,98541
2017-09-13T16:13:20.931Z,98533
2017-09-13T16:15:50.220Z,98537
2017-09-13T16:18:22.351Z,98553
2017-09-13T16:20:51.931Z,98566
2017-09-13T16:23:22.275Z,98553
2017-09-13T16:25:54.630Z,98567
2017-09-13T16:28:25.550Z,98568
2017-09-13T16:30:55.274Z,98593
2017-09-13T16:33:24.695Z,98572
2017-09-13T16:35:54.677Z,98593
2017-09-13T16:38:24.877Z,98589
2017-09-13T16:40:54.968Z,98578
2017-09-13T16:43:25.562Z,98588
2017-09-13T16:45:57.361Z,98591
2017-09-13T16:48:27.374Z,98591
2017-09-13T16:50:57.234Z,98595
2017-09-13T16:53:27.026Z,98604
2017-09-13T16:55:56.811Z,98622
2017-09-13T16:58:33.358Z,98606
2017-09-13T17:01:03.145Z,98618
2017-09-13T17:03:32.940Z,98611
2017-09-13T17:06:03.470Z,98621
2017-09-13T17:08:34.639Z,98615
2017-09-13T17:11:04.783Z,98615
2017-09-13T17:13:33.933Z,98621
2017-09-13T17:16:03.106Z,98625
2017-09-13T17:18:32.429Z,98626
2017-09-13T17:21:01.665Z,98617
2017-09-13T17:23:30.805Z,98648
2017-09-13T17:26:00.550Z,98653
2017-09-13T17:28:29.734Z,98621
2017-09-13T17:30:58.910Z,98634
2017-09-13T17:33:29.537Z,98635
2017-09-13T17:36:00.077Z,98640
2017-09-13T17:38:30.151Z,98652
2017-09-13T17:40:59.270Z,98645
2017-09-13T17:43:31.263Z,98648
2017-09-13T17:46:06.517Z,98652
2017-09-13T17:48:47.334Z,98664
2017-09-13T17:51:18.864Z,98654
2017-09-13T17:53:49.707Z,98654
2017-09-13T17:56:19.218Z,98654
2017-09-13T17:58:52.986Z,98657
2017-09-13T18:01:24.210Z,98659
2017-09-13T18:04:06.316Z,98656
2017-09-13T18:06:37.605Z,98658
2017-09-13T18:09:16.247Z,98665
2017-09-13T18:11:47.398Z,98678
2017-09-13T18:14:19.381Z,98679
2017-09-13T18:16:50.800Z,98675
2017-09-13T18:19:20.588Z,98682
2017-09-13T18:21:49.733Z,98663
2017-09-13T18:24:20.890Z,98682
2017-09-13T18:26:56.303Z,98678
2017-09-13T18:29:26.571Z,98690
2017-09-13T18:31:55.849Z,98693
2017-09-13T18:34:25.055Z,98696
2017-09-13T18:36:54.154Z,98694
2017-09-13T18:39:24.223Z,98703
2017-09-13T18:41:55.341Z,98695
2017-09-13T18:44:24.871Z,98711
2017-09-13T18:46:54.021Z,98703
2017-09-13T18:49:23.500Z,98706
2017-09-13T18:51:52.822Z,98707
2017-09-13T18:54:23.407Z,98708
2017-09-13T18:56:53.926Z,98716
2017-09-13T18:59:23.954Z,98726
2017-09-13T19:01:54.558Z,98730
2017-09-13T19:04:27.583Z,98728
2017-09-13T19:07:01.376Z,98740
2017-09-13T19:09:30.530Z,98725
2017-09-13T19:12:00.978Z,98742
2017-09-13T19:14:30.995Z,98759
2017-09-13T19:17:00.117Z,98750
2017-09-13T19:19:29.290Z,98737
2017-09-13T19:21:58.493Z,98748
2017-09-13T19:24:27.839Z,98741
2017-09-13T19:27:08.201Z,98742
2017-09-13T19:29:41.984Z,98740
2017-09-13T19:32:19.732Z,98745
2017-09-13T19:34:51.956Z,98740
2017-09-13T19:37:22.361Z,98749
2017-09-13T19:39:51.648Z,98755
2017-09-13T19:42:23.219Z,98751
2017-09-13T19:44:52.371Z,98755
2017-09-13T19:47:22.661Z,98765
2017-09-13T19:49:52.675Z,98756
2017-09-13T19:52:22.067Z,98758
2017-09-13T19:54:56.503Z,98758
2017-09-13T19:57:25.921Z,98766
2017-09-13T19:59:55.378Z,98757
2017-09-13T20:02:26.837Z,98766
2017-09-13T20:04:58.053Z,98774
2017-09-13T20:07:27.346Z,98773
2017-09-13T20:10:01.077Z,98771
2017-09-13T20:12:31.265Z,98779
2017-09-13T20:15:01.438Z,98781
2017-09-13T20:17:31.749Z,98772
2017-09-13T20:20:00.977Z,98782
2017-09-13T20:22:38.125Z,98777
2017-09-13T20:25:46.141Z,98778
2017-09-13T20:28:19.022Z,98785
2017-09-13T20:30:52.256Z,98777
2017-09-13T20:33:22.450Z,98788
2017-09-13T20:35:58.202Z,98784
2017-09-13T20:38:33.253Z,98792
2017-09-13T20:41:03.855Z,98795
2017-09-13T20:43:36.267Z,98793
2017-09-13T20:46:09.110Z,98800
2017-09-13T20:48:42.623Z,98793
2017-09-13T20:51:12.625Z,98804
2017-09-13T20:53:42.472Z,98804
2017-09-13T20:56:13.852Z,98796
2017-09-13T20:58:44.835Z,98804
2017-09-13T21:01:15.435Z,98807
2017-09-13T21:03:44.887Z,98811
2017-09-13T21:06:14.573Z,98821
2017-09-13T21:08:44.330Z,98818
2017-09-13T21:11:16.963Z,98813
2017-09-13T21:13:46.389Z,98830
2017-09-13T21:16:16.899Z,98837
2017-09-13T21:18:47.008Z,98832
2017-09-13T21:21:16.446Z,98821
2017-09-13T21:23:52.558Z,98798
2017-09-13T21:26:26.048Z,98816
2017-09-13T21:28:55.243Z,98826
2017-09-13T21:31:24.417Z,98838
2017-09-13T21:33:54.240Z,98842
2017-09-13T21:36:24.450Z,98848
2017-09-13T21:38:54.724Z,98852
2017-09-13T21:41:23.882Z,98841
2017-09-13T21:44:03.056Z,98837
2017-09-13T21:46:32.646Z,98844
2017-09-13T21:49:01.921Z,98850
2017-09-13T21:51:31.149Z,98850
2017-09-13T21:54:01.018Z,98851
2017-09-13T21:56:31.272Z,98858
2017-09-13T21:59:00.418Z,98855
2017-09-13T22:01:29.599Z,98855
2017-09-13T22:03:59.010Z,98862
2017-09-13T22:06:29.142Z,98856
2017-09-13T22:08:59.623Z,98856
2017-09-13T22:11:29.538Z,98862
2017-09-13T22:13:58.630Z,98862
2017-09-13T22:16:28.746Z,98853
2017-09-13T22:18:58.021Z,98852
2017-09-13T22:21:27.150Z,98850
2017-09-13T22:23:56.453Z,98855
2017-09-13T22:26:25.626Z,98846
2017-09-13T22:28:55.406Z,98847
2017-09-13T22:31:24.710Z,98850
2017-09-13T22:33:53.861Z,98847
2017-09-13T22:36:22.988Z,98845
2017-09-13T22:38:53.773Z,98845
2017-09-13T22:41:22.892Z,98841
2017-09-13T22:43:51.987Z,98848
2017-09-13T22:46:21.973Z,98845
2017-09-13T22:48:53.031Z,98851
2017-09-13T22:51:22.349Z,98847
2017-09-13T22:53:51.468Z,98845
2017-09-13T22:56:21.460Z,98851
2017-09-13T22:58:50.743Z,98846
2017-09-13T23:01:19.957Z,98847
2017-09-13T23:03:49.822Z,98852
2017-09-13T23:06:19.019Z,98853
2017-09-13T23:08:48.231Z,98853
2017-09-13T23:11:18.415Z,98858
2017-09-13T23:13:48.796Z,98851
2017-09-13T23:16:17.938Z,98861
2017-09-13T23:18:47.063Z,98847
2017-09-13T23:21:16.569Z,98863
2017-09-13T23:23:45.824Z,98873
2017-09-13T23:26:15.366Z,98859
2017-09-13T23:28:45.091Z,98877
2017-09-13T23:31:15.418Z,98862
2017-09-13T23:33:44.667Z,98869
2017-09-13T23:36:13.941Z,98861
2017-09-13T23:38:43.126Z,98868
2017-09-13T23:41:12.273Z,98873
2017-09-13T23:43:42.406Z,98878
2017-09-13T23:46:12.037Z,98873
2017-09-13T23:48:41.417Z,98876
2017-09-13T23:51:10.949Z,98878
2017-09-13T23:53:40.958Z,98875
2017-09-13T23:56:10.361Z,98886
2017-09-13T23:58:39.563Z,98880
